Time;durP1;ratioP1;P1;durP2;ratioP2;P2;SDS_P1;SDS_P2;PMS_P1;PMS_P2;Temp;Humidity;BMP_temperature;BMP_pressure;BME280_temperature;BME280_humidity;BME280_pressure;Samples;Min_cycle;Max_cycle;Signal;HPM_P1;HPM_P2
2022/04/26 03:36:42;;;;;;;;;41.50;34.25;;;;;9.16;76.77;101420.03;5009428;28;49961;-61
2022/04/26 03:39:08;;;;;;;;;39.25;36.00;;;;;9.25;76.56;101429.97;5008349;28;50517;-60
2022/04/26 03:41:34;;;;;;;;;35.25;34.00;;;;;9.26;77.33;101430.00;5008372;28;50167;-63
2022/04/26 03:44:00;;;;;;;;;40.50;36.50;;;;;9.19;76.87;101420.16;5009011;28;49817;-65
2022/04/26 03:46:26;;;;;;;;;40.00;35.75;;;;;9.18;77.56;101427.13;5009276;28;49896;-64
2022/04/26 03:48:51;;;;;;;;;33.50;32.25;;;;;9.22;77.47;101432.47;5011294;28;49785;-61
2022/04/26 03:51:16;;;;;;;;;32.00;26.75;;;;;9.22;77.46;101440.34;4993764;28;49911;-63
2022/04/26 03:53:42;;;;;;;;;34.25;29.75;;;;;9.19;76.67;101435.88;5012580;28;50167;-64
2022/04/26 03:56:07;;;;;;;;;40.25;35.75;;;;;9.18;77.41;101439.34;5012841;28;49722;-61
2022/04/26 03:58:33;;;;;;;;;39.25;35.25;;;;;9.16;76.82;101441.88;5012285;28;49801;-62
2022/04/26 04:00:59;;;;;;;;;29.50;29.25;;;;;9.10;77.92;101449.53;5012379;28;49770;-62
2022/04/26 04:03:24;;;;;;;;;38.00;34.50;;;;;9.05;76.73;101444.94;5012722;28;49921;-61
2022/04/26 04:05:49;;;;;;;;;34.75;30.75;;;;;9.06;77.44;101447.59;5012710;28;49674;-61
2022/04/26 04:08:15;;;;;;;;;38.75;35.50;;;;;9.07;77.38;101453.75;5011870;28;50384;-61
2022/04/26 04:10:40;;;;;;;;;36.50;31.00;;;;;9.04;77.83;101451.00;4999669;28;49802;-62
2022/04/26 04:13:05;;;;;;;;;34.25;31.25;;;;;9.05;77.06;101458.03;5012375;28;49576;-61
2022/04/26 04:15:31;;;;;;;;;41.00;34.25;;;;;8.99;77.56;101460.44;5012786;28;49841;-60
2022/04/26 04:17:57;;;;;;;;;39.50;33.50;;;;;8.92;78.17;101453.19;5011506;28;49874;-61
2022/04/26 04:20:22;;;;;;;;;44.25;36.75;;;;;8.89;77.19;101453.97;5012064;28;49769;-61
2022/04/26 04:22:53;;;;;;;;;39.25;35.75;;;;;8.88;77.28;101449.56;5011995;28;49659;-61
2022/04/26 04:25:19;;;;;;;;;42.50;35.75;;;;;9.02;77.75;101466.69;5012005;28;49892;-60
2022/04/26 04:27:45;;;;;;;;;37.25;36.00;;;;;9.04;77.42;101470.25;5011387;28;50447;-61
2022/04/26 04:30:10;;;;;;;;;38.50;35.25;;;;;9.02;77.48;101469.28;5012122;28;49879;-60
2022/04/26 04:32:36;;;;;;;;;46.25;39.00;;;;;9.01;77.25;101475.38;5011839;28;50001;-60
2022/04/26 04:35:01;;;;;;;;;42.00;36.25;;;;;9.00;78.39;101483.19;5012103;28;50372;-60
2022/04/26 04:37:27;;;;;;;;;40.75;36.75;;;;;8.96;77.94;101471.66;5011648;28;49878;-60
2022/04/26 04:39:52;;;;;;;;;44.75;37.00;;;;;8.89;77.66;101470.56;5011861;28;49857;-60
2022/04/26 04:42:17;;;;;;;;;37.50;35.50;;;;;8.92;77.88;101477.63;5012024;28;49894;-60
2022/04/26 04:44:43;;;;;;;;;46.25;37.75;;;;;8.93;78.43;101489.88;5011713;28;49936;-61
2022/04/26 04:47:08;;;;;;;;;43.75;37.00;;;;;8.91;78.55;101486.31;5011190;28;49746;-60
2022/04/26 04:49:34;;;;;;;;;45.50;38.25;;;;;8.75;78.34;101462.97;5011685;28;49701;-61
2022/04/26 04:51:59;;;;;;;;;44.00;35.00;;;;;8.91;78.23;101488.94;5011233;28;49832;-60
2022/04/26 04:54:24;;;;;;;;;36.00;35.25;;;;;8.77;79.08;101467.44;5011612;28;49957;-61
2022/04/26 04:56:50;;;;;;;;;41.50;37.25;;;;;8.89;78.61;101493.22;5011402;28;49745;-60
2022/04/26 04:59:16;;;;;;;;;45.75;39.00;;;;;8.97;79.03;101496.13;5010943;28;49793;-60
2022/04/26 05:01:41;;;;;;;;;45.50;38.75;;;;;8.68;78.48;101453.09;5011535;28;49640;-61
2022/04/26 05:04:07;;;;;;;;;47.75;40.00;;;;;9.02;77.93;101511.19;5011625;28;50173;-60
2022/04/26 05:06:35;;;;;;;;;49.50;41.25;;;;;8.91;78.73;101488.06;5011567;28;49695;-60
2022/04/26 05:09:01;;;;;;;;;48.75;39.50;;;;;9.01;78.62;101512.03;5011277;28;50043;-60
2022/04/26 05:11:26;;;;;;;;;47.00;39.25;;;;;9.03;77.83;101514.72;5011601;28;49869;-61
2022/04/26 05:13:52;;;;;;;;;48.75;38.25;;;;;8.52;77.65;101421.09;5011653;28;50017;-60
2022/04/26 05:16:17;;;;;;;;;44.50;39.50;;;;;9.04;78.42;101506.91;4989956;28;50312;-60
2022/04/26 05:18:42;;;;;;;;;49.00;39.75;;;;;9.20;77.56;101526.75;5008907;28;49782;-60
2022/04/26 05:21:09;;;;;;;;;45.75;39.00;;;;;9.26;78.19;101528.69;5011099;28;49810;-60
2022/04/26 05:26:19;;;;;;;;;43.75;38.25;;;;;9.44;77.70;101532.00;5010890;28;50268;-61
2022/04/26 05:28:44;;;;;;;;;43.75;38.00;;;;;9.38;77.67;101519.56;5010919;28;49936;-61
2022/04/26 05:31:10;;;;;;;;;47.00;39.50;;;;;9.10;77.23;101470.47;5011106;28;49746;-60
2022/04/26 05:33:35;;;;;;;;;45.75;39.25;;;;;9.43;77.31;101511.88;5011041;28;50005;-61
2022/04/26 05:36:01;;;;;;;;;33.25;30.75;;;;;9.71;77.29;101546.13;5010609;28;51457;-61
2022/04/26 05:38:27;;;;;;;;;39.00;35.00;;;;;9.81;76.95;101547.38;5010619;28;49936;-61
2022/04/26 05:40:52;;;;;;;;;48.25;40.00;;;;;9.86;77.11;101553.69;5010624;28;49859;-61
2022/04/26 05:43:18;;;;;;;;;43.00;38.75;;;;;9.93;76.78;101542.56;5010825;28;50059;-61
2022/04/26 05:45:44;;;;;;;;;44.75;40.00;;;;;10.06;76.24;101550.88;5010962;28;50327;-61
2022/04/26 05:48:11;;;;;;;;;39.50;35.75;;;;;9.71;75.10;101493.69;5010581;28;50001;-61
2022/04/26 05:50:36;;;;;;;;;44.25;37.00;;;;;10.04;75.80;101535.09;5010704;28;49720;-61
2022/04/26 05:53:02;;;;;;;;;41.00;37.25;;;;;9.97;75.59;101522.59;5010778;28;50120;-60
2022/04/26 05:55:27;;;;;;;;;51.00;41.75;;;;;9.82;75.32;101493.19;5005577;28;49770;-68
2022/04/26 05:57:52;;;;;;;;;47.50;39.00;;;;;10.18;74.70;101560.06;5009830;28;49808;-62
2022/04/26 06:00:18;;;;;;;;;49.50;38.00;;;;;9.93;74.63;101500.59;5010805;28;49845;-62
2022/04/26 06:02:44;;;;;;;;;55.50;45.00;;;;;10.03;75.40;101526.31;5010524;28;49762;-64
2022/04/26 06:05:09;;;;;;;;;51.00;42.25;;;;;10.15;75.17;101559.09;5010051;28;51213;-63
2022/04/26 06:07:35;;;;;;;;;59.75;46.75;;;;;10.19;75.38;101555.72;4992772;28;50466;-64
2022/04/26 06:10:01;;;;;;;;;52.75;43.25;;;;;10.21;75.04;101551.41;5010194;28;49726;-62
2022/04/26 06:12:27;;;;;;;;;54.25;45.00;;;;;10.28;75.33;101558.69;5004083;28;49688;-64
2022/04/26 06:14:56;;;;;;;;;53.75;41.75;;;;;10.30;75.14;101539.53;5010086;28;50296;-63
2022/04/26 06:17:22;;;;;;;;;57.75;45.25;;;;;10.24;75.16;101523.59;5009769;28;49761;-65
2022/04/26 06:19:48;;;;;;;;;51.00;43.00;;;;;10.28;74.87;101507.09;5010285;28;49798;-67
2022/04/26 06:22:13;;;;;;;;;54.75;44.25;;;;;10.59;75.02;101561.50;5010904;28;49901;-62
2022/04/26 06:24:38;;;;;;;;;56.25;46.00;;;;;10.47;74.61;101536.59;5010090;28;50573;-70
2022/04/26 06:27:04;;;;;;;;;54.25;45.50;;;;;10.69;74.24;101556.56;5010211;28;49802;-66
2022/04/26 06:29:30;;;;;;;;;56.00;46.50;;;;;10.65;74.19;101557.31;5009607;28;49715;-66
2022/04/26 06:31:55;;;;;;;;;63.50;50.75;;;;;10.53;74.72;101542.94;5009605;28;50112;-67
2022/04/26 06:34:21;;;;;;;;;63.00;48.75;;;;;10.68;74.48;101573.16;5009606;28;50469;-62
2022/04/26 06:36:47;;;;;;;;;67.00;54.25;;;;;10.70;74.67;101572.34;5009406;28;49611;-66
2022/04/26 06:39:12;;;;;;;;;59.25;47.25;;;;;10.81;73.57;101576.25;5007052;28;50251;-62
2022/04/26 06:41:38;;;;;;;;;57.50;48.00;;;;;10.86;74.31;101584.28;5009912;28;49888;-63
2022/04/26 06:44:03;;;;;;;;;62.00;49.00;;;;;10.95;74.00;101583.69;5008882;28;50664;-63
2022/04/26 06:46:29;;;;;;;;;64.00;51.25;;;;;10.78;74.00;101573.50;5009436;28;49832;-63
2022/04/26 06:48:58;;;;;;;;;63.25;49.75;;;;;10.94;73.75;101589.78;5009264;28;49635;-63
2022/04/26 06:51:23;;;;;;;;;60.25;47.00;;;;;11.04;73.76;101589.22;5010763;28;49877;-62
2022/04/26 06:53:49;;;;;;;;;66.75;54.00;;;;;11.06;73.46;101585.81;5009808;28;50803;-62
2022/04/26 06:56:14;;;;;;;;;70.50;54.50;;;;;11.09;73.52;101578.00;5010010;28;49783;-65
2022/04/26 06:58:39;;;;;;;;;68.25;53.75;;;;;11.19;73.40;101568.69;5009582;28;49929;-64
2022/04/26 07:01:05;;;;;;;;;74.50;56.75;;;;;11.24;73.01;101574.97;5009817;28;49990;-62
2022/04/26 07:03:31;;;;;;;;;68.00;52.50;;;;;11.55;72.97;101587.31;5009616;28;50362;-62
2022/04/26 07:05:56;;;;;;;;;70.00;55.50;;;;;11.49;72.44;101578.38;5009133;28;50201;-62
2022/04/26 07:08:21;;;;;;;;;72.25;57.50;;;;;11.50;72.35;101569.63;5008837;28;49758;-66
2022/04/26 07:10:46;;;;;;;;;68.00;53.75;;;;;11.60;71.72;101567.31;5004074;28;49731;-65
2022/04/26 07:13:15;;;;;;;;;61.50;50.50;;;;;11.64;71.61;101568.28;5009360;28;49915;-63
2022/04/26 07:15:41;;;;;;;;;69.00;55.50;;;;;11.84;71.61;101592.56;5008659;28;50170;-65
2022/04/26 07:18:06;;;;;;;;;66.00;53.00;;;;;12.01;71.26;101589.59;5008446;28;49844;-64
2022/04/26 07:20:32;;;;;;;;;70.00;55.25;;;;;12.06;71.01;101578.28;5009595;28;49995;-63
2022/04/26 07:22:57;;;;;;;;;67.75;54.75;;;;;12.16;70.76;101577.69;5009220;28;50041;-66
2022/04/26 07:25:23;;;;;;;;;69.75;53.75;;;;;12.39;70.20;101576.56;5015856;28;50047;-66
2022/04/26 07:27:48;;;;;;;;;72.00;54.50;;;;;12.75;69.76;101600.34;5023364;28;49768;-70
2022/04/26 07:30:14;;;;;;;;;69.00;52.00;;;;;12.71;68.34;101572.13;5013445;28;49552;-69
2022/04/26 07:35:23;;;;;;;;;67.00;53.00;;;;;12.98;66.87;101597.38;5015957;28;49739;-64
2022/04/26 07:37:49;;;;;;;;;63.00;49.75;;;;;13.08;67.03;101597.63;5012466;28;50484;-70
2022/04/26 07:40:16;;;;;;;;;70.50;54.25;;;;;13.06;67.34;101601.97;5018350;28;50318;-61
2022/04/26 07:42:42;;;;;;;;;71.25;55.25;;;;;12.46;67.59;101522.34;5017269;28;49997;-65
2022/04/26 07:45:09;;;;;;;;;61.25;50.25;;;;;12.99;67.06;101612.34;5012349;28;50168;-68
2022/04/26 07:47:35;;;;;;;;;75.75;55.50;;;;;12.99;66.70;101623.75;5017875;28;49666;-66
2022/04/26 07:50:02;;;;;;;;;60.75;47.75;;;;;12.84;66.85;101626.94;5009807;28;49819;-67
2022/04/26 07:52:28;;;;;;;;;61.25;49.00;;;;;12.69;67.56;101633.53;5014091;28;50978;-65
2022/04/26 07:54:54;;;;;;;;;60.75;49.00;;;;;12.68;67.87;101616.84;5011994;28;49778;-67
2022/04/26 07:57:19;;;;;;;;;63.75;49.25;;;;;12.80;67.43;101611.88;5013076;28;49771;-66
2022/04/26 07:59:45;;;;;;;;;66.50;50.25;;;;;13.00;67.42;101637.84;5010977;28;49682;-64
2022/04/26 08:02:10;;;;;;;;;61.25;49.75;;;;;13.01;66.91;101640.50;5012576;28;50225;-68
2022/04/26 08:04:36;;;;;;;;;58.75;48.75;;;;;13.08;66.64;101641.56;5009300;28;50309;-65
2022/04/26 08:07:02;;;;;;;;;64.75;49.75;;;;;13.06;66.75;101649.44;5020651;28;49639;-67
2022/04/26 08:09:27;;;;;;;;;64.75;52.00;;;;;13.20;66.86;101649.78;5027100;28;49291;-69
2022/04/26 08:11:53;;;;;;;;;57.25;49.25;;;;;13.36;66.37;101654.59;5028233;28;50340;-68
2022/04/26 08:14:20;;;;;;;;;60.50;47.50;;;;;13.48;65.76;101646.06;5020606;28;49590;-66
2022/04/26 08:16:45;;;;;;;;;63.50;49.25;;;;;13.71;65.65;101655.41;5011644;28;49753;-67
2022/04/26 08:19:11;;;;;;;;;60.00;45.25;;;;;13.67;62.75;101657.91;5019985;28;49675;-69
2022/04/26 08:21:37;;;;;;;;;57.50;48.25;;;;;13.33;62.84;101657.16;5019277;28;50478;-65
2022/04/26 08:29:30;;;;;;;;;57.75;47.25;;;;;12.82;63.97;101661.97;5018982;28;49789;-70
2022/04/26 08:31:56;;;;;;;;;61.50;48.50;;;;;12.64;63.17;101646.56;5012195;28;50340;-64
2022/04/26 08:34:22;;;;;;;;;51.00;43.25;;;;;12.74;63.71;101669.69;5014998;28;49934;-69
2022/04/26 08:36:48;;;;;;;;;62.50;49.50;;;;;12.67;63.83;101658.94;5016373;28;49675;-63
2022/04/26 08:39:14;;;;;;;;;62.50;47.00;;;;;12.77;63.93;101676.78;5017730;28;49855;-64
2022/04/26 08:41:39;;;;;;;;;53.25;43.25;;;;;12.83;64.29;101671.66;5016017;28;49792;-66
2022/04/26 08:44:11;;;;;;;;;50.75;40.50;;;;;12.92;63.40;101673.63;5014552;28;49574;-63
2022/04/26 08:52:07;;;;;;;;;50.75;42.00;;;;;13.56;62.03;101683.16;5008529;28;49754;-66
2022/04/26 08:54:33;;;;;;;;;58.25;47.00;;;;;13.62;61.86;101662.22;5011442;28;49794;-64
2022/04/26 08:56:59;;;;;;;;;66.00;48.50;;;;;13.72;61.35;101654.53;5011294;28;49957;-64
2022/04/26 08:59:26;;;;;;;;;65.00;50.50;;;;;13.77;60.57;101666.94;5015808;28;49747;-64
2022/04/26 09:02:18;;;;;;;;;54.50;40.75;;;;;13.79;60.31;101689.84;5014004;28;49841;-66
2022/04/26 09:04:45;;;;;;;;;54.75;44.50;;;;;13.41;60.48;101647.69;5010241;28;49803;-76
2022/04/26 09:07:14;;;;;;;;;53.00;45.25;;;;;13.70;60.45;101679.09;5019413;28;49702;-69
2022/04/26 09:09:41;;;;;;;;;59.75;47.75;;;;;13.69;59.89;101643.88;5023454;28;49781;-69
2022/04/26 09:12:11;;;;;;;;;58.75;46.75;;;;;13.75;59.77;101662.50;5026841;28;49509;-66
2022/04/26 09:14:41;;;;;;;;;61.75;48.50;;;;;13.92;59.93;101664.63;5028144;28;49442;-66
2022/04/26 09:17:11;;;;;;;;;61.00;47.00;;;;;14.18;59.94;101712.69;5027572;28;49751;-67
2022/04/26 09:19:53;;;;;;;;;57.50;47.25;;;;;13.74;60.49;101683.59;5028810;28;49418;-66
2022/04/26 09:22:21;;;;;;;;;58.75;48.50;;;;;13.87;60.81;101713.78;5023698;28;49829;-68
2022/04/26 09:25:14;;;;;;;;;61.00;47.25;;;;;13.79;60.15;101718.88;5025874;28;49640;-66
2022/04/26 09:27:40;;;;;;;;;58.00;48.75;;;;;14.02;60.38;101716.78;5027646;28;49638;-66
2022/04/26 09:30:13;;;;;;;;;55.75;46.25;;;;;14.06;59.13;101702.75;5028330;28;49336;-67
2022/04/26 09:32:49;;;;;;;;;51.00;43.75;;;;;13.86;59.62;101689.13;5023461;28;49439;-65
2022/04/26 09:35:22;;;;;;;;;56.25;45.25;;;;;13.94;59.97;101710.44;5021388;28;49740;-66
2022/04/26 09:37:48;;;;;;;;;62.50;49.75;;;;;14.02;60.20;101716.78;5027337;28;49251;-65
2022/04/26 09:40:13;;;;;;;;;55.75;46.75;;;;;14.22;60.25;101726.00;5022028;28;49717;-66
2022/04/26 09:42:39;;;;;;;;;55.25;45.00;;;;;13.88;59.98;101705.00;5023167;28;49710;-67
2022/04/26 09:45:10;;;;;;;;;56.00;46.25;;;;;13.95;59.97;101726.28;5028211;28;49789;-69
2022/04/26 09:47:40;;;;;;;;;59.50;47.25;;;;;13.98;60.97;101741.31;5018812;28;49710;-67
2022/04/26 09:50:09;;;;;;;;;62.50;50.25;;;;;14.14;60.23;101739.91;5025688;28;49770;-66
2022/04/26 09:52:35;;;;;;;;;61.50;50.75;;;;;14.12;60.77;101731.94;5000628;28;51478;-67
2022/04/26 09:55:00;;;;;;;;;63.50;49.75;;;;;14.17;60.07;101732.03;5038874;28;49416;-68
2022/04/26 09:57:31;;;;;;;;;37.75;32.50;;;;;14.15;59.08;101742.56;5007669;28;49345;-67
2022/04/26 09:59:59;;;;;;;;;57.25;47.50;;;;;14.01;59.21;101738.75;5024196;28;49703;-67
2022/04/26 10:02:30;;;;;;;;;56.00;45.75;;;;;13.97;59.72;101748.34;5008200;28;50921;-66
2022/04/26 10:05:01;;;;;;;;;58.75;46.00;;;;;13.96;59.62;101725.44;5008956;28;49686;-69
2022/04/26 10:07:30;;;;;;;;;59.75;48.00;;;;;14.35;59.17;101750.91;5014606;28;49805;-66
2022/04/26 10:09:56;;;;;;;;;64.00;48.25;;;;;14.38;58.46;101724.59;5012848;28;49883;-68
2022/04/26 10:12:22;;;;;;;;;60.00;47.25;;;;;14.53;57.64;101747.81;5010010;28;49861;-68
2022/04/26 10:14:48;;;;;;;;;58.75;47.00;;;;;14.36;58.04;101750.06;4994367;28;49844;-69
2022/04/26 10:17:19;;;;;;;;;57.75;44.25;;;;;14.40;57.83;101740.47;5010365;28;50007;-69
2022/04/26 10:19:44;;;;;;;;;58.00;49.25;;;;;14.34;58.26;101722.72;5008266;28;49637;-69
2022/04/26 10:22:11;;;;;;;;;56.00;46.50;;;;;14.66;57.67;101746.28;5009865;28;50262;-69
2022/04/26 10:24:39;;;;;;;;;63.25;50.50;;;;;14.72;57.36;101726.16;5003905;28;49749;-68
2022/04/26 10:27:23;;;;;;;;;63.75;49.75;;;;;15.02;57.20;101735.53;5003764;28;49898;-69
2022/04/26 10:29:48;;;;;;;;;59.25;47.75;;;;;15.41;56.30;101736.22;5010392;28;49982;-63
2022/04/26 10:32:34;;;;;;;;;56.50;45.50;;;;;15.88;54.23;101732.56;5009732;28;50777;-67
2022/04/26 10:35:21;;;;;;;;;56.50;45.75;;;;;16.24;53.11;101741.03;5010038;28;49639;-66
2022/04/26 10:38:07;;;;;;;;;53.00;42.50;;;;;16.49;53.52;101747.50;5008909;28;50016;-66
2022/04/26 10:41:04;;;;;;;;;58.75;48.00;;;;;16.42;52.44;101726.22;5010707;28;50053;-67
2022/04/26 10:43:29;;;;;;;;;60.50;48.75;;;;;16.17;52.03;101709.13;5011020;28;49992;-66
2022/04/26 10:46:15;;;;;;;;;51.75;42.50;;;;;16.44;52.23;101748.34;5012826;28;49620;-68
2022/04/26 10:48:41;;;;;;;;;56.00;43.25;;;;;16.47;52.23;101740.41;5012340;28;49853;-68
2022/04/26 10:51:35;;;;;;;;;54.00;43.75;;;;;16.59;52.43;101751.16;5009800;28;49779;-66
2022/04/26 10:54:04;;;;;;;;;54.25;44.00;;;;;16.58;52.53;101742.31;5008143;28;50567;-68
2022/04/26 10:56:31;;;;;;;;;55.50;45.25;;;;;16.54;51.89;101740.50;5006761;28;50055;-68
2022/04/26 10:58:56;;;;;;;;;52.50;43.00;;;;;16.40;51.92;101726.19;5009296;28;49981;-69
2022/04/26 11:01:27;;;;;;;;;51.50;43.00;;;;;16.14;52.24;101683.50;5015462;28;49965;-68
2022/04/26 11:03:58;;;;;;;;;52.00;43.75;;;;;16.57;51.83;101729.94;5015648;28;51394;-67
2022/04/26 11:06:41;;;;;;;;;53.00;40.50;;;;;16.72;51.61;101744.28;5015485;28;49730;-67
2022/04/26 11:09:10;;;;;;;;;51.25;41.25;;;;;16.57;51.17;101756.44;5015531;28;50105;-67
2022/04/26 11:11:47;;;;;;;;;46.75;40.75;;;;;16.38;52.56;101746.50;5029559;28;49835;-67
2022/04/26 11:14:13;;;;;;;;;49.50;41.75;;;;;16.53;52.60;101743.16;5028768;28;50067;-70
2022/04/26 11:16:57;;;;;;;;;53.25;43.50;;;;;16.77;52.61;101743.44;5021382;28;49751;-70
2022/04/26 11:19:32;;;;;;;;;52.50;41.50;;;;;17.09;51.63;101727.00;5027437;28;49690;-70
2022/04/26 11:22:13;;;;;;;;;56.00;44.00;;;;;17.29;51.08;101727.19;5028245;28;49813;-66
2022/04/26 11:30:09;;;;;;;;;46.25;39.75;;;;;16.73;50.45;101703.63;5019633;28;49862;-68
2022/04/26 11:32:42;;;;;;;;;49.75;40.00;;;;;16.64;50.06;101714.13;4997499;28;49933;-67
2022/04/26 11:35:13;;;;;;;;;48.75;39.75;;;;;17.05;50.16;101741.09;4997586;28;52425;-67
2022/04/26 11:37:53;;;;;;;;;48.75;41.00;;;;;16.88;49.77;101719.69;5020512;28;49881;-69
2022/04/26 11:40:28;;;;;;;;;44.25;38.75;;;;;16.89;50.53;101745.38;5029906;28;49425;-70
2022/04/26 11:42:56;;;;;;;;;56.25;44.50;;;;;16.92;50.47;101753.34;5024696;28;49693;-72
2022/04/26 11:45:28;;;;;;;;;43.25;37.75;;;;;17.07;49.63;101753.47;5016526;28;52081;-69
2022/04/26 11:47:54;;;;;;;;;43.00;38.25;;;;;17.03;48.75;101738.44;5024594;28;49992;-70
2022/04/26 11:50:38;;;;;;;;;45.50;38.75;;;;;17.16;48.19;101750.03;5020308;28;49896;-71
2022/04/26 11:53:13;;;;;;;;;39.50;34.25;;;;;17.19;48.70;101710.28;5021924;28;49853;-72
2022/04/26 11:55:43;;;;;;;;;42.25;35.00;;;;;17.51;47.45;101750.34;5023130;28;49682;-71
2022/04/26 11:58:16;;;;;;;;;49.25;38.75;;;;;16.95;47.15;101649.94;5017589;28;49711;-69
2022/04/26 12:01:00;;;;;;;;;41.50;34.75;;;;;17.67;47.11;101738.97;5018756;28;49786;-71
2022/04/26 12:03:27;;;;;;;;;44.00;37.50;;;;;17.59;46.92;101738.03;5020009;28;49714;-70
2022/04/26 12:06:04;;;;;;;;;47.75;36.75;;;;;17.65;46.50;101743.38;5015228;28;50290;-72
2022/04/26 12:08:36;;;;;;;;;48.75;39.25;;;;;17.86;46.25;101744.47;5012547;28;49813;-70
2022/04/26 12:11:20;;;;;;;;;44.25;37.00;;;;;17.56;47.72;101748.59;5008620;28;50049;-67
2022/04/26 12:14:03;;;;;;;;;42.00;36.00;;;;;17.15;47.90;101751.81;5013677;28;50062;-68
2022/04/26 12:16:31;;;;;;;;;48.25;40.25;;;;;17.11;47.50;101747.34;5016568;28;50059;-68
2022/04/26 12:19:01;;;;;;;;;52.00;42.50;;;;;17.19;47.53;101739.47;5011339;28;50025;-69
2022/04/26 12:21:27;;;;;;;;;51.75;42.25;;;;;17.10;47.40;101750.00;5013366;28;49902;-67
2022/04/26 12:24:29;;;;;;;;;35.50;34.00;;;;;16.87;47.44;101755.03;5024857;28;49715;-67
2022/04/26 12:26:55;;;;;;;;;39.75;33.00;;;;;17.05;45.97;101743.75;4984362;28;50781;-69
2022/04/26 12:29:23;;;;;;;;;39.25;34.00;;;;;17.22;45.73;101723.56;5002979;28;49865;-69
2022/04/26 12:31:49;;;;;;;;;42.75;35.50;;;;;17.60;46.17;101745.13;5012703;28;50022;-69
2022/04/26 12:34:20;;;;;;;;;41.75;35.75;;;;;17.66;44.14;101723.94;5013122;28;49880;-70
2022/04/26 12:36:59;;;;;;;;;37.25;33.00;;;;;18.15;44.37;101739.31;5013577;28;49765;-69
2022/04/26 12:39:39;;;;;;;;;40.00;33.00;;;;;18.28;43.45;101726.09;5009155;28;49840;-70
2022/04/26 12:42:07;;;;;;;;;38.00;34.25;;;;;18.54;42.21;101730.63;5024967;28;49383;-69
2022/04/26 12:44:34;;;;;;;;;37.00;32.25;;;;;18.36;41.59;101733.22;5010100;28;49872;-73
2022/04/26 12:50:28;;;;;;;;;36.50;35.25;;;;;17.45;43.02;101703.41;5009117;28;49932;-74
2022/04/26 12:52:56;;;;;;;;;32.75;28.75;;;;;17.77;43.82;101732.00;5017568;28;49845;-72
2022/04/26 12:55:35;;;;;;;;;36.00;32.00;;;;;17.92;43.36;101736.50;5028971;28;49753;-70
2022/04/26 12:58:11;;;;;;;;;40.25;34.00;;;;;18.06;42.39;101710.03;5025275;28;49579;-70
2022/04/26 13:00:50;;;;;;;;;34.50;32.00;;;;;18.28;42.04;101730.50;5023012;28;49647;-73
2022/04/26 13:03:19;;;;;;;;;30.75;28.75;;;;;18.27;41.98;101718.09;5014431;28;49775;-72
2022/04/26 13:05:49;;;;;;;;;29.25;28.75;;;;;18.27;42.38;101708.34;5018142;28;49873;-73
2022/04/26 13:08:16;;;;;;;;;35.25;32.75;;;;;18.39;42.11;101714.59;5020792;28;50118;-73
2022/04/26 13:10:42;;;;;;;;;33.25;31.50;;;;;18.48;42.10;101711.97;5011661;28;50073;-69
2022/04/26 13:13:09;;;;;;;;;33.25;30.50;;;;;18.39;41.55;101686.25;5009991;28;49884;-68
2022/04/26 13:15:35;;;;;;;;;34.00;30.00;;;;;18.32;41.98;101713.69;5011758;28;49729;-74
2022/04/26 13:18:03;;;;;;;;;33.25;32.25;;;;;17.84;42.23;101654.13;5013499;28;50689;-68
2022/04/26 13:20:29;;;;;;;;;24.75;23.75;;;;;17.87;43.13;101667.44;5010591;28;49833;-69
2022/04/26 13:22:54;;;;;;;;;27.50;27.50;;;;;18.05;42.42;101703.84;5016662;28;49643;-65
2022/04/26 13:25:20;;;;;;;;;29.00;28.50;;;;;17.85;41.40;101686.88;4992732;28;49573;-67
2022/04/26 13:27:47;;;;;;;;;28.50;27.00;;;;;18.05;41.97;101692.28;5009416;28;50460;-79
2022/04/26 13:30:13;;;;;;;;;26.50;26.50;;;;;18.44;41.81;101704.88;4993330;28;49750;-73
2022/04/26 13:32:38;;;;;;;;;30.25;30.00;;;;;18.33;41.07;101694.19;5009578;28;49792;-72
2022/04/26 13:35:07;;;;;;;;;26.25;22.00;;;;;18.26;41.66;101706.59;5011131;28;49752;-74
2022/04/26 13:37:33;;;;;;;;;31.00;29.75;;;;;18.37;41.35;101692.44;5011170;28;49640;-72
2022/04/26 13:40:00;;;;;;;;;30.00;30.00;;;;;18.25;41.12;101646.34;5011028;28;50081;-74
2022/04/26 13:42:27;;;;;;;;;30.25;26.75;;;;;18.60;41.32;101672.13;5011378;28;50539;-64
2022/04/26 13:44:55;;;;;;;;;28.75;27.50;;;;;18.17;40.95;101596.69;5011327;28;50082;-67
2022/04/26 13:47:22;;;;;;;;;33.50;30.50;;;;;18.51;40.78;101672.09;5010271;28;50961;-66
2022/04/26 13:49:48;;;;;;;;;32.00;28.75;;;;;18.73;40.71;101660.69;5011117;28;49805;-66
2022/04/26 13:52:16;;;;;;;;;28.50;26.75;;;;;18.85;40.39;101675.75;5014993;28;49699;-65
2022/04/26 13:54:42;;;;;;;;;28.50;25.75;;;;;18.70;40.72;101667.75;5011187;28;49650;-66
2022/04/26 13:57:08;;;;;;;;;31.00;30.25;;;;;18.74;40.81;101665.09;5010837;28;50457;-66
2022/04/26 13:59:34;;;;;;;;;31.50;30.75;;;;;19.07;40.78;101684.63;5016165;28;49694;-67
2022/04/26 14:02:00;;;;;;;;;30.50;26.75;;;;;18.91;39.97;101635.84;5010642;28;49839;-68
2022/04/26 14:04:26;;;;;;;;;27.00;25.50;;;;;18.87;39.57;101663.34;5010893;28;49730;-66
2022/04/26 14:06:51;;;;;;;;;22.50;22.00;;;;;18.74;40.31;101678.41;5013442;28;50889;-67
2022/04/26 14:09:17;;;;;;;;;26.75;25.75;;;;;18.42;40.73;101674.72;5013658;28;49953;-68
2022/04/26 14:11:44;;;;;;;;;26.75;24.00;;;;;18.20;41.19;101673.78;5010555;28;49961;-68
2022/04/26 14:22:22;;;;;;;;;20.25;19.25;;;;;18.13;42.13;101675.50;5010422;28;49776;-68
2022/04/26 14:24:53;;;;;;;;;19.00;19.00;;;;;18.14;41.47;101669.31;5010336;28;49744;-69
2022/04/26 14:27:20;;;;;;;;;28.25;25.25;;;;;18.24;40.92;101668.50;5010467;28;50199;-68
2022/04/26 14:29:45;;;;;;;;;25.00;24.00;;;;;18.28;39.78;101656.09;5010314;28;49741;-68
2022/04/26 14:32:12;;;;;;;;;28.50;25.50;;;;;18.26;40.40;101641.91;5009693;28;49731;-68
2022/04/26 14:34:39;;;;;;;;;25.75;22.25;;;;;18.55;40.34;101656.16;5010358;28;49942;-68
2022/04/26 14:37:05;;;;;;;;;26.00;23.50;;;;;18.74;40.08;101659.78;5009916;28;50457;-69
2022/04/26 14:39:31;;;;;;;;;24.00;23.25;;;;;18.74;40.11;101662.44;5010064;28;49775;-68
2022/04/26 14:41:56;;;;;;;;;23.50;20.75;;;;;18.82;40.49;101670.44;5010309;28;50505;-69
2022/04/26 14:44:21;;;;;;;;;19.75;18.25;;;;;18.80;40.07;101654.44;5010316;28;50063;-68
2022/04/26 14:46:47;;;;;;;;;19.75;18.75;;;;;18.58;39.97;101657.94;5010095;28;52667;-68
2022/04/26 14:49:12;;;;;;;;;21.50;18.50;;;;;18.47;39.46;101667.66;5009795;28;49754;-69
2022/04/26 14:51:37;;;;;;;;;22.50;21.50;;;;;18.19;39.97;101662.25;5010204;28;49810;-68
2022/04/26 14:54:03;;;;;;;;;22.50;22.50;;;;;18.20;39.74;101663.13;5010260;28;49786;-69
2022/04/26 14:56:28;;;;;;;;;24.75;21.25;;;;;18.11;39.91;101674.63;5009925;28;50468;-68
2022/04/26 14:58:54;;;;;;;;;22.00;20.75;;;;;18.01;40.58;101652.44;5010232;28;50077;-68
2022/04/26 15:01:19;;;;;;;;;18.25;17.25;;;;;18.25;39.84;101658.75;5010186;28;49656;-68
2022/04/26 15:03:45;;;;;;;;;22.25;22.25;;;;;18.34;39.93;101649.91;5009925;28;49959;-68
2022/04/26 15:06:13;;;;;;;;;19.75;18.50;;;;;18.76;39.32;101650.03;5009772;28;50642;-68
2022/04/26 15:11:22;;;;;;;;;20.50;18.25;;;;;19.07;38.69;101644.72;5009997;28;49585;-68
2022/04/26 15:16:38;;;;;;;;;21.25;18.00;;;;;18.57;38.92;101661.47;5009787;28;49992;-68
2022/04/26 15:19:09;;;;;;;;;14.75;14.75;;;;;18.55;38.77;101658.81;5009750;28;49933;-68
2022/04/26 15:21:35;;;;;;;;;14.75;14.75;;;;;18.45;38.23;101661.47;5009871;28;49781;-68
2022/04/26 15:24:00;;;;;;;;;16.50;15.00;;;;;18.39;38.70;101666.75;5009868;28;49770;-68
2022/04/26 15:26:26;;;;;;;;;16.50;12.75;;;;;18.28;38.05;101621.53;5009649;28;50414;-68
2022/04/26 15:28:52;;;;;;;;;15.00;15.00;;;;;18.50;37.94;101662.34;5009768;28;49770;-68
2022/04/26 15:31:18;;;;;;;;;15.25;13.25;;;;;18.63;38.06;101672.16;5003951;28;49754;-68